Time;durP1;ratioP1;P1;durP2;ratioP2;P2;SDS_P1;SDS_P2;PMS_P1;PMS_P2;Temp;Humidity;BMP_temperature;BMP_pressure;BME280_temperature;BME280_humidity;BME280_pressure;Samples;Min_cycle;Max_cycle;Signal;HPM_P1;HPM_P2
2022/11/05 00:10:13;;;;;;;0.10;0.10;;;;;;;7.29;100.00;101423.78;5004082;28;20037;-74
2022/11/05 00:18:06;;;;;;;0.10;0.10;;;;;;;7.52;100.00;101434.16;5003422;28;20064;-74
2022/11/05 00:20:32;;;;;;;0.08;0.08;;;;;;;7.56;100.00;101431.22;5005118;28;20522;-72
2022/11/05 00:25:55;;;;;;;0.10;0.10;;;;;;;7.53;100.00;101428.72;5000803;28;20128;-72
2022/11/05 00:28:20;;;;;;;0.10;0.10;;;;;;;7.56;100.00;101441.91;4998437;28;20033;-73
2022/11/05 00:30:46;;;;;;;0.10;0.10;;;;;;;7.68;100.00;101445.72;4983349;28;20579;-72
2022/11/05 00:33:11;;;;;;;0.10;0.10;;;;;;;7.77;100.00;101439.88;4979850;28;20034;-72
2022/11/05 00:35:36;;;;;;;0.10;0.10;;;;;;;7.84;100.00;101431.47;5004019;28;20091;-72
2022/11/05 00:38:01;;;;;;;0.10;0.10;;;;;;;7.87;100.00;101440.19;4982854;28;20375;-72
2022/11/05 00:40:27;;;;;;;0.10;0.10;;;;;;;7.77;100.00;101434.53;4999646;28;20038;-72
2022/11/05 00:45:36;;;;;;;0.10;0.10;;;;;;;7.82;100.00;101444.94;4998417;28;20678;-72
2022/11/05 00:50:46;;;;;;;0.10;0.10;;;;;;;7.89;100.00;101454.34;4999643;28;20120;-72
2022/11/05 00:53:11;;;;;;;0.10;0.10;;;;;;;7.71;100.00;101424.16;4998340;28;20029;-71
2022/11/05 00:55:38;;;;;;;0.05;0.05;;;;;;;7.85;100.00;101460.81;4981080;28;20113;-72
2022/11/05 00:58:09;;;;;;;0.10;0.10;;;;;;;7.59;100.00;101438.19;4996221;28;20429;-72
2022/11/05 01:00:36;;;;;;;0.10;0.10;;;;;;;7.59;100.00;101478.28;4999234;28;20033;-72
2022/11/05 01:03:04;;;;;;;0.10;0.10;;;;;;;7.43;100.00;101468.44;4980123;28;20125;-72
2022/11/05 01:05:30;;;;;;;0.03;0.03;;;;;;;7.17;100.00;101472.50;4997469;28;20164;-72
2022/11/05 01:07:56;;;;;;;0.10;0.10;;;;;;;7.06;100.00;101473.09;4999809;28;20057;-72
2022/11/05 01:10:22;;;;;;;0.10;0.10;;;;;;;6.97;100.00;101481.59;4999924;28;20033;-72
2022/11/05 01:12:47;;;;;;;0.10;0.10;;;;;;;6.87;100.00;101492.75;4983890;28;20025;-72
2022/11/05 01:15:13;;;;;;;0.00;0.00;;;;;;;6.75;100.00;101496.06;5002520;28;20059;-71
2022/11/05 01:17:38;;;;;;;0.00;0.00;;;;;;;6.57;100.00;101498.72;4998106;28;20030;-72
2022/11/05 01:20:04;;;;;;;0.10;0.10;;;;;;;6.45;100.00;101496.69;5002944;28;20113;-72
2022/11/05 01:22:29;;;;;;;0.10;0.10;;;;;;;6.30;100.00;101492.97;5004062;28;20148;-72
2022/11/05 01:24:55;;;;;;;0.10;0.10;;;;;;;6.24;100.00;101486.09;5003436;28;20521;-72
2022/11/05 01:27:20;;;;;;;0.10;0.10;;;;;;;6.02;100.00;101472.97;5000956;28;20033;-72
2022/11/05 01:29:46;;;;;;;0.10;0.10;;;;;;;6.14;100.00;101499.03;5001564;28;20486;-72
2022/11/05 01:32:11;;;;;;;0.10;0.10;;;;;;;6.20;100.00;101519.22;4969287;28;20120;-72
2022/11/05 01:34:36;;;;;;;0.05;0.05;;;;;;;6.09;100.00;101497.53;5001519;28;20026;-72
2022/11/05 01:37:02;;;;;;;0.10;0.10;;;;;;;6.19;100.00;101520.16;4985041;28;20140;-72
2022/11/05 01:39:27;;;;;;;0.10;0.10;;;;;;;6.16;100.00;101517.63;4985420;28;20034;-72
2022/11/05 01:41:52;;;;;;;0.10;0.10;;;;;;;6.08;100.00;101510.00;5005502;28;20042;-72
2022/11/05 01:44:52;;;;;;;0.10;0.10;;;;;;;6.12;100.00;101524.06;4998475;28;20088;-72
2022/11/05 01:47:42;;;;;;;0.10;0.10;;;;;;;6.11;100.00;101530.31;5003387;28;20123;-72
2022/11/05 01:50:19;;;;;;;0.10;0.10;;;;;;;6.05;100.00;101533.28;4999423;28;20033;-72
2022/11/05 01:52:45;;;;;;;0.10;0.10;;;;;;;5.86;100.00;101513.66;4986824;28;20060;-73
2022/11/05 01:55:12;;;;;;;0.10;0.10;;;;;;;5.94;100.00;101521.31;4983161;28;20037;-73
2022/11/05 01:57:37;;;;;;;0.10;0.10;;;;;;;6.00;100.00;101533.50;4985779;28;20064;-73
2022/11/05 02:00:03;;;;;;;0.10;0.10;;;;;;;5.93;100.00;101527.56;5000971;28;20538;-73
2022/11/05 02:02:29;;;;;;;0.10;0.10;;;;;;;5.99;100.00;101534.41;5000428;28;20044;-72
2022/11/05 02:05:00;;;;;;;0.00;0.00;;;;;;;5.73;100.00;101491.19;4980965;28;20030;-73
2022/11/05 02:07:26;;;;;;;0.10;0.10;;;;;;;5.79;100.00;101528.22;4981081;28;20021;-73
2022/11/05 02:10:02;;;;;;;0.10;0.10;;;;;;;5.71;100.00;101509.91;4983975;28;20037;-75
2022/11/05 02:12:28;;;;;;;0.10;0.10;;;;;;;5.76;100.00;101522.16;5000308;28;20470;-75
2022/11/05 02:15:03;;;;;;;0.10;0.10;;;;;;;5.66;100.00;101522.59;4994385;28;20030;-75
2022/11/05 02:17:50;;;;;;;0.10;0.10;;;;;;;5.59;100.00;101522.94;4979755;28;20406;-75
2022/11/05 02:20:31;;;;;;;0.10;0.10;;;;;;;5.54;100.00;101520.47;4995386;28;20022;-75
2022/11/05 02:23:15;;;;;;;0.10;0.10;;;;;;;5.49;100.00;101518.03;4983188;28;20494;-75
2022/11/05 02:26:07;;;;;;;0.10;0.10;;;;;;;5.25;100.00;101515.56;4999780;28;20045;-75
2022/11/05 02:29:00;;;;;;;0.10;0.10;;;;;;;5.30;100.00;101518.00;4996353;28;20030;-74
2022/11/05 02:31:30;;;;;;;0.10;0.10;;;;;;;5.22;100.00;101502.38;4997906;28;20052;-75
2022/11/05 02:34:34;;;;;;;0.10;0.10;;;;;;;5.17;100.00;101507.03;5000522;28;20022;-75
2022/11/05 02:37:21;;;;;;;0.10;0.10;;;;;;;5.20;100.00;101509.56;4944264;28;22109;-74
2022/11/05 02:39:55;;;;;;;0.10;0.10;;;;;;;5.22;100.00;101504.16;4999403;28;20038;-74
2022/11/05 02:42:38;;;;;;;0.10;0.10;;;;;;;5.18;100.00;101495.44;5000976;28;20026;-75
2022/11/05 02:45:28;;;;;;;0.10;0.10;;;;;;;5.33;100.00;101501.88;4984601;28;20030;-75
2022/11/05 02:48:29;;;;;;;0.10;0.10;;;;;;;5.32;100.00;101499.28;5000923;28;20025;-75
2022/11/05 02:51:09;;;;;;;0.10;0.10;;;;;;;4.95;100.00;101462.75;4971553;28;20494;-75
2022/11/05 02:53:40;;;;;;;0.10;0.10;;;;;;;5.17;100.00;101498.16;4998943;28;20057;-75
2022/11/05 02:56:13;;;;;;;0.10;0.10;;;;;;;5.16;100.00;101496.47;5001372;28;20065;-75
2022/11/05 02:58:38;;;;;;;0.10;0.10;;;;;;;5.10;100.00;101490.47;4982777;28;20064;-75
2022/11/05 03:01:05;;;;;;;0.10;0.10;;;;;;;5.05;100.00;101465.84;4982405;28;20033;-75
2022/11/05 03:03:50;;;;;;;0.10;0.10;;;;;;;5.29;100.00;101502.94;5002617;28;20036;-76
2022/11/05 03:06:45;;;;;;;0.10;0.10;;;;;;;5.11;100.00;101475.34;4997654;28;20025;-75
2022/11/05 03:09:13;;;;;;;;;;;;;;;5.22;100.00;101507.69;4997758;28;20037;-75
2022/11/05 03:12:02;;;;;;;0.10;0.10;;;;;;;5.24;100.00;101499.63;4999460;28;20237;-75
2022/11/05 03:14:54;;;;;;;0.10;0.10;;;;;;;5.23;100.00;101503.22;4980767;28;20595;-75
2022/11/05 03:17:30;;;;;;;0.10;0.10;;;;;;;5.09;100.00;101483.41;4989214;28;20034;-75
2022/11/05 03:20:17;;;;;;;0.10;0.10;;;;;;;5.22;100.00;101499.72;4983331;28;20044;-75
2022/11/05 03:23:09;;;;;;;0.10;0.10;;;;;;;5.02;100.00;101476.63;5000179;28;20485;-75
2022/11/05 03:25:42;;;;;;;0.10;0.10;;;;;;;5.09;100.00;101474.56;4998580;28;20555;-75
2022/11/05 03:28:09;;;;;;;0.10;0.10;;;;;;;5.04;100.00;101479.22;4983056;28;20080;-75
2022/11/05 03:30:35;;;;;;;0.10;0.10;;;;;;;5.13;100.00;101508.09;4967196;28;20030;-76
2022/11/05 03:33:05;;;;;;;0.10;0.10;;;;;;;4.88;100.00;101479.91;5000102;28;20022;-75
2022/11/05 03:35:35;;;;;;;0.10;0.10;;;;;;;4.83;100.00;101473.06;4969004;28;20026;-75
2022/11/05 03:38:04;;;;;;;0.10;0.10;;;;;;;5.07;100.00;101508.34;4983414;28;20381;-75
2022/11/05 03:40:34;;;;;;;0.10;0.10;;;;;;;4.94;100.00;101511.56;4990552;28;20056;-75
2022/11/05 03:43:00;;;;;;;0.10;0.10;;;;;;;4.94;100.00;101511.56;4996554;28;20373;-75
2022/11/05 03:45:36;;;;;;;0.10;0.10;;;;;;;4.82;100.00;101504.09;4983118;28;20080;-75
2022/11/05 03:48:03;;;;;;;0.10;0.10;;;;;;;4.79;100.00;101506.91;4983362;28;20026;-75
2022/11/05 03:50:30;;;;;;;0.10;0.10;;;;;;;4.84;100.00;101520.03;4969116;28;20383;-75
2022/11/05 03:53:03;;;;;;;0.10;0.10;;;;;;;4.86;100.00;101527.00;4998853;28;20470;-76
2022/11/05 03:55:35;;;;;;;0.10;0.10;;;;;;;4.82;100.00;101509.44;4968802;28;20414;-75
2022/11/05 03:58:03;;;;;;;0.10;0.10;;;;;;;4.85;100.00;101517.28;4988530;28;20030;-75
2022/11/05 04:00:28;;;;;;;0.10;0.10;;;;;;;4.69;100.00;101501.09;4986563;28;20478;-75
2022/11/05 04:02:54;;;;;;;0.10;0.10;;;;;;;4.71;100.00;101498.41;4986394;28;20049;-76
2022/11/05 04:05:19;;;;;;;0.10;0.10;;;;;;;4.63;100.00;101488.94;4986862;28;20029;-75
2022/11/05 04:13:24;;;;;;;0.10;0.10;;;;;;;4.53;100.00;101495.56;4978904;28;20056;-76
2022/11/05 04:18:37;;;;;;;0.10;0.10;;;;;;;4.47;100.00;101517.97;4979881;28;20119;-75
2022/11/05 04:24:08;;;;;;;0.10;0.10;;;;;;;4.39;100.00;101544.00;4979994;28;20040;-76
2022/11/05 04:26:38;;;;;;;0.20;0.20;;;;;;;4.53;100.00;101534.59;4980620;28;20501;-76
2022/11/05 04:31:48;;;;;;;;;;;;;;;4.19;100.00;101542.16;4996754;28;20539;-76
2022/11/05 04:34:15;;;;;;;0.10;0.10;;;;;;;4.08;100.00;101512.47;4985774;28;19917;-75
2022/11/05 04:36:40;;;;;;;0.10;0.10;;;;;;;4.08;100.00;101513.34;4996854;28;20030;-76
2022/11/05 04:39:06;;;;;;;0.10;0.10;;;;;;;3.99;100.00;101511.91;5000827;28;20044;-76
2022/11/05 04:41:31;;;;;;;0.10;0.10;;;;;;;4.15;100.00;101522.78;4997286;28;20053;-76
2022/11/05 04:43:56;;;;;;;0.10;0.10;;;;;;;4.01;100.00;101517.19;4998293;28;20030;-76
2022/11/05 04:46:22;;;;;;;0.10;0.10;;;;;;;4.18;100.00;101543.94;4979066;28;20033;-77
2022/11/05 04:48:47;;;;;;;0.17;0.17;;;;;;;4.09;100.00;101536.34;4979945;28;20034;-76
2022/11/05 04:51:13;;;;;;;0.10;0.10;;;;;;;4.12;100.00;101540.66;4996985;28;20052;-75
2022/11/05 04:53:38;;;;;;;0.10;0.10;;;;;;;4.00;100.00;101526.06;4978837;28;20117;-77
2022/11/05 04:56:11;;;;;;;0.10;0.10;;;;;;;4.04;100.00;101531.19;5002925;28;20061;-76
2022/11/05 04:58:40;;;;;;;0.10;0.10;;;;;;;4.05;100.00;101534.75;4980689;28;20026;-75
2022/11/05 05:01:11;;;;;;;0.10;0.10;;;;;;;4.09;100.00;101560.28;4983328;28;20068;-76
2022/11/05 05:03:36;;;;;;;0.10;0.10;;;;;;;4.09;100.00;101560.28;4984647;28;20422;-74
2022/11/05 05:06:01;;;;;;;0.10;0.10;;;;;;;4.00;100.00;101561.47;4979220;28;20034;-74
2022/11/05 05:08:26;;;;;;;0.10;0.10;;;;;;;4.08;100.00;101555.88;4999237;28;20040;-75
2022/11/05 05:10:52;;;;;;;0.10;0.10;;;;;;;3.88;100.00;101560.16;5000930;28;20058;-75
2022/11/05 05:13:17;;;;;;;0.15;0.15;;;;;;;3.87;100.00;101563.72;5000594;28;20047;-75
2022/11/05 05:15:42;;;;;;;0.10;0.10;;;;;;;3.77;100.00;101549.09;4999632;28;20045;-75
2022/11/05 05:18:08;;;;;;;0.10;0.10;;;;;;;3.92;100.00;101574.19;4994184;28;20125;-75
2022/11/05 05:23:17;;;;;;;0.10;0.10;;;;;;;3.81;100.00;101545.41;4997097;28;20571;-74
2022/11/05 05:25:43;;;;;;;0.13;0.13;;;;;;;3.93;100.00;101569.75;4997071;28;20132;-75
2022/11/05 05:28:08;;;;;;;0.20;0.20;;;;;;;3.82;100.00;101564.84;4997990;28;20030;-75
2022/11/05 05:30:33;;;;;;;0.20;0.20;;;;;;;3.83;100.00;101550.63;4999733;28;20049;-74
2022/11/05 05:33:01;;;;;;;0.17;0.17;;;;;;;3.90;100.00;101574.25;4987194;28;20073;-76
2022/11/05 05:35:27;;;;;;;0.20;0.20;;;;;;;3.66;100.00;101545.94;5005198;28;20029;-76
2022/11/05 05:37:55;;;;;;;0.10;0.10;;;;;;;3.74;100.00;101560.66;4990214;28;20112;-75
2022/11/05 05:40:20;;;;;;;0.20;0.20;;;;;;;3.83;100.00;101582.50;4987584;28;20029;-77
2022/11/05 05:42:46;;;;;;;0.10;0.10;;;;;;;3.89;100.00;101582.28;4972471;28;20037;-76
2022/11/05 05:45:11;;;;;;;0.20;0.20;;;;;;;3.73;100.00;101560.75;5001030;28;20489;-75
2022/11/05 05:47:37;;;;;;;0.10;0.10;;;;;;;4.01;100.00;101584.47;4979236;28;20083;-74
2022/11/05 05:50:03;;;;;;;0.10;0.10;;;;;;;3.98;100.00;101584.56;4982652;28;20036;-75
2022/11/05 05:52:28;;;;;;;0.10;0.10;;;;;;;3.97;100.00;101596.16;4996039;28;20048;-76
2022/11/05 05:54:53;;;;;;;0.10;0.10;;;;;;;3.83;100.00;101572.75;4997365;28;20109;-75
2022/11/05 05:57:19;;;;;;;0.20;0.20;;;;;;;3.84;100.00;101578.94;4996900;28;20405;-76
2022/11/05 05:59:44;;;;;;;0.20;0.20;;;;;;;3.71;100.00;101566.09;4979891;28;20037;-76
2022/11/05 06:02:11;;;;;;;0.10;0.10;;;;;;;3.72;100.00;101562.50;4982555;28;20096;-74
2022/11/05 06:04:36;;;;;;;0.10;0.10;;;;;;;3.85;100.00;101580.66;4999098;28;20034;-75
2022/11/05 06:07:01;;;;;;;0.10;0.10;;;;;;;3.72;100.00;101580.25;4998173;28;20091;-76
2022/11/05 06:09:27;;;;;;;0.20;0.20;;;;;;;3.44;100.00;101560.88;4995708;28;22652;-74
2022/11/05 06:11:53;;;;;;;0.10;0.10;;;;;;;3.41;100.00;101554.81;4980993;28;20337;-74
2022/11/05 06:14:18;;;;;;;0.10;0.10;;;;;;;3.65;100.00;101590.25;4997427;28;20037;-75
2022/11/05 06:16:43;;;;;;;0.10;0.10;;;;;;;3.65;100.00;101565.47;4997651;28;20053;-76
2022/11/05 06:19:08;;;;;;;0.20;0.20;;;;;;;3.63;100.00;101554.91;4981307;28;20040;-72
2022/11/05 06:21:34;;;;;;;0.20;0.20;;;;;;;3.58;100.00;101572.81;5001838;28;20428;-75
2022/11/05 06:24:01;;;;;;;0.10;0.10;;;;;;;3.69;100.00;101593.66;4981300;28;20065;-75
2022/11/05 06:26:26;;;;;;;0.10;0.10;;;;;;;3.49;100.00;101581.09;4984079;28;20025;-76
2022/11/05 06:28:52;;;;;;;0.10;0.10;;;;;;;3.54;100.00;101582.69;5000275;28;20050;-76
2022/11/05 06:31:17;;;;;;;0.20;0.20;;;;;;;3.49;100.00;101581.97;4981304;28;20053;-75
2022/11/05 06:33:42;;;;;;;0.10;0.10;;;;;;;3.53;100.00;101598.66;4995110;28;20119;-76
2022/11/05 06:36:13;;;;;;;0.10;0.10;;;;;;;3.51;100.00;101588.09;4977879;28;20040;-75
2022/11/05 06:38:38;;;;;;;0.20;0.20;;;;;;;3.45;100.00;101590.97;4993978;28;20021;-75
2022/11/05 06:41:03;;;;;;;0.10;0.10;;;;;;;3.40;100.00;101599.09;4995664;28;20045;-75
2022/11/05 06:43:29;;;;;;;0.10;0.10;;;;;;;3.25;100.00;101581.03;4960699;28;20037;-75
2022/11/05 06:45:55;;;;;;;0.10;0.10;;;;;;;3.39;100.00;101605.34;4980510;28;20453;-76
2022/11/05 06:48:21;;;;;;;0.20;0.20;;;;;;;3.40;100.00;101598.22;4999001;28;20461;-76
2022/11/05 06:50:47;;;;;;;0.10;0.10;;;;;;;3.48;100.00;101604.13;4980347;28;20041;-76
2022/11/05 06:53:12;;;;;;;0.10;0.10;;;;;;;3.31;100.00;101578.19;4979645;28;20018;-75
2022/11/05 06:55:38;;;;;;;0.10;0.10;;;;;;;3.45;100.00;101617.50;4979192;28;20478;-76
2022/11/05 06:58:03;;;;;;;0.20;0.20;;;;;;;3.41;100.00;101602.63;4992999;28;20489;-76
2022/11/05 07:00:28;;;;;;;0.15;0.15;;;;;;;3.28;100.00;101591.56;4992290;28;20045;-75
2022/11/05 07:02:57;;;;;;;0.17;0.17;;;;;;;3.56;100.00;101618.00;4986852;28;20040;-75
2022/11/05 07:05:23;;;;;;;0.10;0.10;;;;;;;3.41;100.00;101613.22;4999241;28;20434;-75
2022/11/05 07:07:48;;;;;;;0.17;0.17;;;;;;;3.45;100.00;101625.47;4999584;28;20112;-74
2022/11/05 07:10:16;;;;;;;0.10;0.10;;;;;;;3.36;100.00;101600.13;4999657;28;20077;-73
2022/11/05 07:12:41;;;;;;;0.20;0.20;;;;;;;3.80;100.00;101627.78;4983483;28;20030;-75
2022/11/05 07:15:08;;;;;;;0.10;0.10;;;;;;;3.63;100.00;101618.66;4978601;28;20080;-76
2022/11/05 07:17:33;;;;;;;0.20;0.20;;;;;;;3.83;100.00;101635.63;4994577;28;20042;-76
2022/11/05 07:19:58;;;;;;;0.20;0.20;;;;;;;3.83;100.00;101628.56;4978511;28;20044;-73
2022/11/05 07:22:24;;;;;;;0.10;0.10;;;;;;;3.80;100.00;101598.56;4997560;28;20040;-72
2022/11/05 07:24:49;;;;;;;0.10;0.10;;;;;;;4.01;100.00;101631.44;4994670;28;20038;-74
2022/11/05 07:27:15;;;;;;;0.20;0.20;;;;;;;4.00;100.00;101645.66;4995918;28;20145;-75
2022/11/05 07:29:40;;;;;;;0.10;0.10;;;;;;;3.94;100.00;101635.25;4995504;28;20362;-74
2022/11/05 07:32:05;;;;;;;0.20;0.20;;;;;;;4.00;100.00;101635.03;4999500;28;20080;-74
2022/11/05 07:34:31;;;;;;;0.20;0.20;;;;;;;3.98;100.00;101621.78;4980117;28;20456;-74
2022/11/05 07:36:56;;;;;;;0.20;0.20;;;;;;;4.26;100.00;101641.13;5000451;28;20495;-74
2022/11/05 07:39:22;;;;;;;0.13;0.13;;;;;;;4.32;100.00;101643.56;5001152;28;20444;-74
2022/11/05 07:41:47;;;;;;;0.20;0.20;;;;;;;4.33;100.00;101645.31;5000362;28;20037;-73
2022/11/05 07:44:13;;;;;;;0.20;0.20;;;;;;;4.50;100.00;101639.34;4982490;28;20032;-72
2022/11/05 07:46:40;;;;;;;0.17;0.17;;;;;;;4.48;100.00;101652.66;4981927;28;20065;-75
2022/11/05 07:49:05;;;;;;;0.10;0.10;;;;;;;4.38;100.00;101621.19;4997357;28;20044;-75
2022/11/05 07:51:30;;;;;;;0.20;0.20;;;;;;;4.75;100.00;101652.50;4998460;28;20034;-72
2022/11/05 07:53:55;;;;;;;0.17;0.17;;;;;;;4.59;100.00;101640.75;4978354;28;20385;-74
2022/11/05 07:56:21;;;;;;;0.10;0.10;;;;;;;4.64;100.00;101630.78;4992117;28;20393;-74
2022/11/05 07:58:46;;;;;;;0.10;0.10;;;;;;;4.72;100.00;101635.81;4993702;28;20042;-74
2022/11/05 08:01:11;;;;;;;0.20;0.20;;;;;;;4.82;100.00;101629.16;4974351;28;20136;-74
2022/11/05 08:03:37;;;;;;;0.17;0.17;;;;;;;4.90;100.00;101634.19;4980200;28;20109;-73
2022/11/05 08:06:02;;;;;;;0.20;0.20;;;;;;;5.17;100.00;101656.13;4998683;28;20081;-73
2022/11/05 08:08:27;;;;;;;0.10;0.10;;;;;;;5.30;100.00;101659.13;5007325;28;20752;-73
2022/11/05 08:10:53;;;;;;;0.20;0.20;;;;;;;5.28;100.00;101641.50;4990773;28;20036;-76
2022/11/05 08:13:18;;;;;;;0.10;0.10;;;;;;;5.48;100.00;101654.81;5004288;28;20025;-73
2022/11/05 08:15:43;;;;;;;0.10;0.10;;;;;;;5.53;100.00;101654.59;4993818;28;20026;-75
2022/11/05 08:18:14;;;;;;;0.13;0.13;;;;;;;5.65;100.00;101650.53;5003719;28;22163;-75
2022/11/05 08:20:40;;;;;;;0.10;0.10;;;;;;;5.78;100.00;101656.19;4969645;28;20037;-71
2022/11/05 08:23:06;;;;;;;0.13;0.13;;;;;;;5.90;100.00;101657.44;5003559;28;20036;-73
2022/11/05 08:25:32;;;;;;;0.10;0.10;;;;;;;5.88;100.00;101662.84;5009323;28;20030;-73
2022/11/05 08:27:59;;;;;;;0.15;0.15;;;;;;;6.06;100.00;101654.97;4987462;28;20034;-73
2022/11/05 08:30:25;;;;;;;0.10;0.10;;;;;;;6.10;100.00;101636.09;5005089;28;20037;-74
2022/11/05 08:32:55;;;;;;;0.10;0.10;;;;;;;6.11;100.00;101645.81;4988109;28;20034;-74
2022/11/05 08:35:20;;;;;;;0.10;0.10;;;;;;;6.21;100.00;101638.28;4985267;28;20034;-74
2022/11/05 08:37:45;;;;;;;0.10;0.10;;;;;;;6.34;100.00;101643.91;4998059;28;20060;-75
2022/11/05 08:40:11;;;;;;;0.15;0.15;;;;;;;6.37;100.00;101640.22;4985002;28;20486;-73
2022/11/05 08:42:36;;;;;;;0.20;0.20;;;;;;;6.49;100.00;101641.44;5002493;28;20088;-71
2022/11/05 08:45:02;;;;;;;0.10;0.10;;;;;;;6.74;100.00;101655.31;4996174;28;20037;-73
2022/11/05 08:47:28;;;;;;;0.10;0.10;;;;;;;6.70;100.00;101656.41;4985366;28;20029;-71
2022/11/05 08:49:53;;;;;;;0.10;0.10;;;;;;;6.88;100.00;101651.13;5008695;28;20034;-73
2022/11/05 08:52:18;;;;;;;0.20;0.20;;;;;;;6.90;100.00;101658.09;4988698;28;20045;-72
2022/11/05 08:54:44;;;;;;;0.10;0.10;;;;;;;7.10;100.00;101666.09;4984610;28;20033;-72
2022/11/05 08:57:09;;;;;;;0.10;0.10;;;;;;;7.15;100.00;101658.72;5004567;28;20457;-74
2022/11/05 08:59:34;;;;;;;0.10;0.10;;;;;;;7.19;100.00;101662.94;4989709;28;20033;-70
2022/11/05 09:02:00;;;;;;;0.10;0.10;;;;;;;7.38;100.00;101654.84;5002457;28;20092;-74
2022/11/05 09:04:25;;;;;;;0.10;0.10;;;;;;;7.49;100.00;101662.31;5000551;28;20419;-71
2022/11/05 09:06:50;;;;;;;0.10;0.10;;;;;;;7.63;100.00;101659.81;5004633;28;20030;-74
2022/11/05 09:09:16;;;;;;;0.10;0.10;;;;;;;7.76;100.00;101654.66;4984765;28;20029;-76
2022/11/05 09:11:41;;;;;;;0.10;0.10;;;;;;;8.10;100.00;101666.22;4984976;28;20026;-73
2022/11/05 09:14:06;;;;;;;0.10;0.10;;;;;;;8.15;100.00;101657.06;4985521;28;20087;-74
2022/11/05 09:16:33;;;;;;;0.10;0.10;;;;;;;8.34;100.00;101670.31;4984163;28;20029;-74
2022/11/05 09:18:58;;;;;;;0.10;0.10;;;;;;;8.33;100.00;101647.19;4985848;28;20383;-74
2022/11/05 09:21:24;;;;;;;0.10;0.10;;;;;;;8.78;100.00;101648.22;4966445;28;20025;-74
2022/11/05 09:23:49;;;;;;;0.10;0.10;;;;;;;9.00;100.00;101671.13;5000363;28;20120;-72
2022/11/05 09:26:15;;;;;;;0.10;0.10;;;;;;;9.19;100.00;101644.09;4985531;28;20112;-74
2022/11/05 09:28:42;;;;;;;0.10;0.10;;;;;;;9.30;100.00;101679.19;4994378;28;20363;-72
2022/11/05 09:31:08;;;;;;;0.10;0.10;;;;;;;9.38;100.00;101678.72;5007643;28;20862;-72
2022/11/05 09:33:35;;;;;;;0.10;0.10;;;;;;;9.68;100.00;101674.28;4986526;28;20614;-72
2022/11/05 09:36:01;;;;;;;0.10;0.10;;;;;;;9.72;100.00;101684.75;5007475;28;20069;-74
2022/11/05 09:38:26;;;;;;;0.10;0.10;;;;;;;9.51;100.00;101665.44;5000966;28;20034;-71
2022/11/05 09:40:58;;;;;;;0.10;0.10;;;;;;;9.53;100.00;101660.84;4996154;28;20575;-73
2022/11/05 09:43:29;;;;;;;0.10;0.10;;;;;;;9.92;100.00;101674.59;4997039;28;20026;-75
2022/11/05 09:45:57;;;;;;;0.00;0.00;;;;;;;9.98;100.00;101687.63;4986870;28;20026;-72
2022/11/05 09:48:28;;;;;;;0.10;0.10;;;;;;;9.77;100.00;101688.97;5000452;28;20340;-71
2022/11/05 09:50:53;;;;;;;0.10;0.10;;;;;;;9.75;100.00;101700.66;4986876;28;20025;-70
2022/11/05 09:53:21;;;;;;;0.10;0.10;;;;;;;9.70;100.00;101686.66;4985262;28;20155;-75
2022/11/05 09:55:49;;;;;;;0.10;0.10;;;;;;;9.94;100.00;101678.06;4982230;28;20129;-76
2022/11/05 09:58:47;;;;;;;0.10;0.10;;;;;;;10.10;100.00;101703.91;5000679;28;20026;-70
2022/11/05 10:01:15;;;;;;;0.10;0.10;;;;;;;10.38;100.00;101703.06;4971183;28;20060;-74
2022/11/05 10:03:52;;;;;;;0.10;0.10;;;;;;;10.60;100.00;101694.50;4983576;28;20034;-73
2022/11/05 10:06:20;;;;;;;0.10;0.10;;;;;;;10.78;96.71;101711.28;4998336;28;20026;-73
2022/11/05 10:08:50;;;;;;;0.00;0.00;;;;;;;10.53;95.97;101693.22;4989695;28;20040;-70
2022/11/05 10:11:22;;;;;;;0.10;0.10;;;;;;;10.54;98.55;101677.94;4996474;28;20029;-75
2022/11/05 10:13:55;;;;;;;0.10;0.10;;;;;;;11.06;96.37;101709.47;4980422;28;20364;-72
2022/11/05 10:16:33;;;;;;;0.10;0.10;;;;;;;11.03;93.86;101716.88;4998201;28;20037;-72
2022/11/05 10:19:05;;;;;;;0.10;0.10;;;;;;;11.34;94.56;101714.84;4983380;28;20036;-70
2022/11/05 10:21:30;;;;;;;0.15;0.15;;;;;;;11.29;93.71;101696.31;5006718;28;20029;-68
2022/11/05 10:23:56;;;;;;;0.10;0.10;;;;;;;11.79;94.80;101715.34;4978747;28;20068;-69
2022/11/05 10:26:23;;;;;;;0.08;0.08;;;;;;;11.69;90.82;101715.13;5000698;28;20026;-70
2022/11/05 10:28:48;;;;;;;0.10;0.10;;;;;;;12.25;90.41;101705.03;4979995;28;20623;-73
2022/11/05 10:31:19;;;;;;;0.10;0.10;;;;;;;12.07;86.35;101705.38;5005559;28;20033;-73
2022/11/05 10:33:55;;;;;;;0.10;0.10;;;;;;;12.25;86.01;101715.81;4987584;28;20029;-80
2022/11/05 10:36:22;;;;;;;0.10;0.10;;;;;;;12.15;88.06;101710.22;5006098;28;20025;-76
2022/11/05 10:38:47;;;;;;;0.10;0.10;;;;;;;12.38;87.35;101699.63;4984151;28;20033;-72
2022/11/05 10:41:31;;;;;;;0.00;0.00;;;;;;;12.23;85.42;101713.25;4999319;28;20343;-72
2022/11/05 10:44:07;;;;;;;0.10;0.10;;;;;;;11.55;88.44;101720.56;4988553;28;20042;-74
2022/11/05 10:46:41;;;;;;;0.10;0.10;;;;;;;11.06;90.85;101703.25;5003702;28;20478;-73
2022/11/05 10:49:58;;;;;;;0.00;0.00;;;;;;;11.28;93.39;101721.47;5007532;28;20034;-71
2022/11/05 10:52:26;;;;;;;0.10;0.10;;;;;;;11.15;92.75;101689.16;4957918;28;20133;-73
2022/11/05 10:54:54;;;;;;;0.10;0.10;;;;;;;11.26;95.78;101701.88;4984926;28;20025;-72
2022/11/05 10:57:32;;;;;;;0.10;0.10;;;;;;;11.31;92.10;101715.88;5001096;28;20128;-70
2022/11/05 11:00:15;;;;;;;0.10;0.10;;;;;;;11.00;92.04;101720.59;5003342;28;20518;-71
2022/11/05 11:02:53;;;;;;;0.10;0.10;;;;;;;11.02;92.51;101701.72;5002788;28;20033;-72
2022/11/05 11:05:29;;;;;;;0.00;0.00;;;;;;;10.72;95.49;101710.81;5005823;28;20120;-71
2022/11/05 11:07:58;;;;;;;0.10;0.10;;;;;;;10.71;97.05;101715.34;4999596;28;20112;-70
2022/11/05 11:10:25;;;;;;;0.10;0.10;;;;;;;10.98;98.92;101717.19;4998971;28;20108;-72
2022/11/05 11:12:50;;;;;;;0.10;0.10;;;;;;;10.74;98.46;101712.41;4979725;28;21144;-71
2022/11/05 11:15:19;;;;;;;0.10;0.10;;;;;;;10.87;96.51;101715.19;4986981;28;20025;-73
2022/11/05 11:17:44;;;;;;;0.10;0.10;;;;;;;10.48;96.38;101679.22;5000290;28;20053;-72
2022/11/05 11:20:34;;;;;;;0.10;0.10;;;;;;;10.71;96.55;101714.47;5006979;28;20060;-72
2022/11/05 11:23:12;;;;;;;0.03;0.03;;;;;;;10.88;96.04;101711.53;4992085;28;20038;-71
2022/11/05 11:25:59;;;;;;;0.00;0.00;;;;;;;10.27;97.95;101711.78;4990364;28;20124;-74
2022/11/05 11:28:28;;;;;;;0.00;0.00;;;;;;;10.16;97.42;101712.47;4998294;28;20034;-73
2022/11/05 11:31:14;;;;;;;0.10;0.10;;;;;;;10.13;98.48;101691.19;5007245;28;20574;-74
2022/11/05 11:33:41;;;;;;;0.10;0.10;;;;;;;10.26;99.03;101706.50;4987927;28;20786;-74
2022/11/05 11:36:08;;;;;;;0.00;0.00;;;;;;;10.40;99.45;101703.88;5000937;28;20222;-72
2022/11/05 11:38:35;;;;;;;0.10;0.10;;;;;;;10.46;97.45;101706.13;5001926;28;20103;-71
2022/11/05 11:41:09;;;;;;;0.10;0.10;;;;;;;10.49;95.70;101714.00;4998198;28;20065;-70
2022/11/05 11:43:36;;;;;;;0.10;0.10;;;;;;;10.29;98.01;101683.03;5003195;28;20595;-72
2022/11/05 11:46:04;;;;;;;0.10;0.10;;;;;;;10.12;99.52;101683.22;5011655;28;20034;-73
2022/11/05 11:48:30;;;;;;;0.00;0.00;;;;;;;10.26;97.80;101703.81;5005267;28;20018;-73
2022/11/05 11:50:57;;;;;;;0.10;0.10;;;;;;;10.56;97.63;101708.25;4994174;28;20034;-70
2022/11/05 11:53:24;;;;;;;0.10;0.10;;;;;;;10.55;98.10;101706.53;4990456;28;20462;-72
2022/11/05 11:55:57;;;;;;;0.10;0.10;;;;;;;10.64;96.95;101706.78;4991652;28;20025;-73
2022/11/05 11:58:44;;;;;;;0.10;0.10;;;;;;;10.72;96.28;101708.13;5007900;28;20061;-72
2022/11/05 12:01:40;;;;;;;0.10;0.10;;;;;;;10.73;97.53;101708.00;5010492;28;20640;-74
2022/11/05 12:04:26;;;;;;;0.10;0.10;;;;;;;10.47;96.87;101709.69;5001217;28;20029;-73
2022/11/05 12:07:16;;;;;;;0.10;0.10;;;;;;;10.50;98.06;101713.03;4998740;28;20026;-74
2022/11/05 12:09:51;;;;;;;0.10;0.10;;;;;;;10.54;98.08;101711.03;4986163;28;20393;-72
2022/11/05 12:12:32;;;;;;;0.08;0.08;;;;;;;10.70;95.13;101691.25;5002048;28;20034;-70
2022/11/05 12:15:02;;;;;;;0.10;0.10;;;;;;;10.59;97.64;101698.19;5002036;28;20029;-72
2022/11/05 12:17:31;;;;;;;0.10;0.10;;;;;;;10.46;99.45;101697.22;5000515;28;20030;-73